< < Back
Terminal Aerodrome Forecast


Current Version              Previous Versions:   1  2  3  4  5  6  7  8  9  

Terminal Aerodrome Forecast

551
FTUS44 KBMX 021100
TAFBHM
TAF
KBHM 021136Z 0212/0312 19003KT P6SM SCT200
     FM021500 25006KT P6SM SCT050 SCT150
     FM030000 00000KT P6SM SCT150=

Latest METAR

033
SAUS70 KWBC 021700 RRB
MTRBHM
METAR KBHM 021653Z 22008KT 10SM BKN038 BKN150 32/20 A3011 RMK AO2 SLP187
T03170200


USA.gov is the U.S. government's official web portal to all federal, state and local government web resources and services.